Terminal Aerodrome Forecast
Issued by NWS Jacksonville, FL

Home | Current Version | Previous Version | Text Only | Print | Product List | Glossary On
Versions: 1 2 3 4 5 6 7 8 9 10 11 12 13 14 15 16 17 18 19 20
000
FTUS42 KJAX 300221 AAB
TAFGNV
TAF AMD
KGNV 300221Z 3002/3024 VRB05KT P6SM VCSH BKN060
      TEMPO 3003/3005 5SM -SHRA BKN040
     FM301000 00000KT 2SM BR SCT002 BKN006
     FM301400 15008KT P6SM SCT035=

USA.gov is the U.S. government's official web portal to all federal, state and local government web resources and services.